Stations météo

réclame
Mon MeteoGroup
Ecija, Espagne (8395): Température de l'air & dewpoint: 16.10.2018 16:00:00 - 22.10.2018 16:00:00 (CEST)Ecija, Espagne (8395): Vitesse du vent & gusts: 16.10.2018 16:00:00 - 22.10.2018 16:00:00 (CEST)Ecija, Espagne (8395): Direction du vent: 16.10.2018 16:00:00 - 22.10.2018 16:00:00 (CEST)Ecija, Espagne (8395): reduced air pressure: 16.10.2018 16:00:00 - 22.10.2018 16:00:00 (CEST)Ecija, Espagne (8395): Quantités de précipitations: 16.10.2018 16:00:00 - 22.10.2018 16:00:00 (CEST)
Date & Time tt [°C] td [°C] ff [km/h] ff [knt] fx [km/h] fx [knt] dd ppp [hPa] rr [mm]
22.10.2018 16:00:00 24,8 14,9 3 1 9 5 SE 1018,9 0,0
22.10.2018 15:00:00 24,4 15,3 3 1 13 7 SSW 1019,6 0,0
22.10.2018 14:00:00 23,5 16,0 5 3 14 8 S 1020,3 -
22.10.2018 13:00:00 21,4 16,1 5 3 12 7 ESE 1021,0 0,0
22.10.2018 12:00:00 20,0 17,1 5 3 9 5 E 1021,0 0,0
22.10.2018 11:00:00 17,8 16,3 3 2 8 4 ENE 1021,4 0,0
22.10.2018 10:00:00 15,8 15,6 2 1 5 3 SSW 1021,4 0,0
22.10.2018 09:00:00 14,3 14,1 3 2 5 3 NNW 1020,7 0,0
22.10.2018 08:00:00 14,3 14,1 0 0 2 1 NW 1020,6 -
22.10.2018 07:00:00 14,7 14,5 2 1 4 2 W 1020,6 0,0
22.10.2018 06:00:00 14,4 14,2 1 1 8 4 N 1020,2 0,0
22.10.2018 05:00:00 14,9 14,6 3 2 5 3 SSW 1020,0 0,0
22.10.2018 04:00:00 15,2 14,9 2 1 5 3 S 1020,3 0,0
22.10.2018 03:00:00 15,5 15,0 0 0 4 2 SSE 1020,3 0,0
22.10.2018 02:00:00 16,1 15,4 1 1 5 3 ESE 1020,3 -
22.10.2018 01:00:00 16,5 15,9 1 0 4 2 S 1020,5 0,0
22.10.2018 00:00:00 17,2 16,4 1 0 4 2 SSW 1020,1 0,0
21.10.2018 23:00:00 17,2 16,0 2 1 4 2 W 1019,7 0,0
21.10.2018 22:00:00 17,6 16,5 0 0 5 3 ESE 1019,0 0,0
21.10.2018 21:00:00 18,0 16,5 1 1 6 3 N 1018,5 0,0
21.10.2018 20:00:00 18,7 16,5 1 1 5 3 N 1018,5 -
21.10.2018 19:00:00 19,8 15,6 5 3 12 6 E 1017,8 0,0
21.10.2018 18:00:00 19,7 16,3 7 4 13 7 SSE 1017,9 0,0
21.10.2018 17:00:00 19,6 17,0 6 4 16 9 SE 1017,8 0,0
21.10.2018 16:00:00 18,0 17,2 10 5 14 7 ESE 1018,1 0,0
21.10.2018 15:00:00 17,3 17,1 7 4 13 7 ESE 1018,9 0,1
21.10.2018 14:00:00 15,8 15,6 6 4 14 7 SSE 1020,4 -
21.10.2018 13:00:00 15,6 15,4 1 1 23 13 WNW 1020,7 6,0
21.10.2018 12:00:00 15,2 15,1 13 7 16 9 SW 1020,6 5,5
21.10.2018 11:00:00 15,2 15,1 7 4 17 9 ESE 1020,0 4,7
21.10.2018 10:00:00 15,5 15,3 14 8 26 14 ESE 1019,3 4,2
21.10.2018 09:00:00 15,7 15,5 13 7 21 11 ESE 1018,3 0,3
21.10.2018 08:00:00 16,0 15,9 9 5 17 9 SSE 1017,6 -
21.10.2018 07:00:00 15,7 15,5 12 7 23 12 ESE 1017,2 1,3
21.10.2018 06:00:00 16,0 15,9 8 5 19 10 ESE 1016,9 0,0
21.10.2018 05:00:00 15,6 15,4 2 1 14 8 SE 1016,9 0,0
21.10.2018 04:00:00 15,8 15,6 14 8 24 13 ESE 1016,9 0,9
21.10.2018 03:00:00 15,2 15,1 11 6 17 9 SSW 1017,5 0,0
21.10.2018 02:00:00 15,4 15,3 3 1 16 9 SE 1017,7 -
21.10.2018 01:00:00 15,2 15,1 5 3 13 7 NNE 1017,1 1,1
21.10.2018 00:00:00 15,3 15,2 1 1 11 6 NNW 1018,1 1,3
20.10.2018 23:00:00 15,2 15,1 4 2 24 13 N 1017,5 6,4
20.10.2018 22:00:00 15,1 15,0 16 9 25 14 WNW 1016,5 17,6
20.10.2018 21:00:00 15,7 15,3 16 9 31 17 W 1016,5 1,6
20.10.2018 20:00:00 16,2 14,5 15 8 21 12 W 1015,9 -
20.10.2018 19:00:00 16,7 14,9 9 5 23 12 WNW 1014,9 0,0
20.10.2018 18:00:00 17,3 14,7 5 3 16 8 WNW 1014,8 0,8
20.10.2018 17:00:00 18,7 13,2 9 5 23 13 NE 1014,5 0,0
20.10.2018 16:00:00 19,0 13,0 7 4 16 9 NE 1014,7 0,0
20.10.2018 15:00:00 17,2 11,4 11 6 22 12 ENE 1015,3 0,0
20.10.2018 14:00:00 16,7 12,0 6 3 16 9 NNE 1015,5 -
20.10.2018 13:00:00 15,2 12,0 4 2 10 5 NE 1016,6 0,0
20.10.2018 12:00:00 14,0 12,4 8 4 13 7 E 1017,1 0,0
20.10.2018 11:00:00 13,3 12,2 4 2 9 5 NE 1016,2 0,0
20.10.2018 10:00:00 11,4 11,1 2 1 5 3 SE 1016,0 0,0
20.10.2018 09:00:00 10,6 10,3 0 0 8 4 N 1015,5 0,0
20.10.2018 08:00:00 11,2 10,9 3 1 7 4 WSW 1015,0 -
20.10.2018 07:00:00 10,9 10,4 5 3 7 4 NNW 1015,1 0,0
20.10.2018 06:00:00 11,3 10,5 0 0 4 2 N 1014,9 0,0
20.10.2018 05:00:00 11,4 10,4 0 0 5 3 SSW 1014,5 0,0
20.10.2018 04:00:00 11,8 10,5 0 0 1 1 N 1014,8 0,0
20.10.2018 03:00:00 12,0 10,5 0 0 2 1 N 1015,1 0,0
20.10.2018 02:00:00 12,0 10,5 0 0 6 3 SSW 1014,8 -
20.10.2018 01:00:00 12,4 10,6 0 0 3 2 N 1014,7 0,0
20.10.2018 00:00:00 12,8 10,6 0 0 5 3 N 1015,1 0,0
19.10.2018 23:00:00 13,4 10,2 0 0 15 8 S 1014,9 0,0
19.10.2018 22:00:00 14,0 10,0 8 5 11 6 SSW 1014,5 0,0
19.10.2018 21:00:00 15,1 9,9 5 3 13 7 SSW 1014,1 0,0
19.10.2018 20:00:00 - - - - - - - - -
19.10.2018 19:00:00 18,8 8,4 5 3 23 12 S 1012,1 0,0
19.10.2018 18:00:00 20,7 9,3 14 8 23 12 S 1011,7 0,0
19.10.2018 17:00:00 21,0 9,3 11 6 18 10 ESE 1011,5 0,0
19.10.2018 16:00:00 20,9 9,4 6 4 14 8 ENE 1011,4 0,0
19.10.2018 15:00:00 20,2 9,2 6 4 16 8 E 1011,7 0,0
19.10.2018 14:00:00 18,6 10,2 8 4 19 10 E 1012,1 -
19.10.2018 13:00:00 17,3 11,3 10 5 16 9 ENE 1012,6 0,0
19.10.2018 12:00:00 15,5 11,4 8 4 13 7 ENE 1012,6 0,0
19.10.2018 11:00:00 13,6 12,5 9 5 15 8 E 1012,8 0,0
19.10.2018 10:00:00 12,4 12,2 4 2 10 5 E 1012,3 0,0
19.10.2018 09:00:00 10,1 9,9 1 1 4 2 NNW 1012,0 0,0
19.10.2018 08:00:00 10,1 9,9 3 2 8 4 SE 1011,4 -
19.10.2018 07:00:00 10,8 10,5 0 0 3 1 SE 1011,5 0,0
19.10.2018 06:00:00 11,2 10,9 0 0 4 2 N 1011,4 0,0
19.10.2018 05:00:00 11,7 10,9 0 0 4 2 ESE 1010,8 0,0
19.10.2018 04:00:00 12,1 11,1 3 1 10 5 E 1011,4 0,0
19.10.2018 03:00:00 12,4 11,4 0 0 7 4 E 1011,5 0,0
19.10.2018 02:00:00 12,7 11,8 0 0 8 4 N 1010,9 -
19.10.2018 01:00:00 12,8 11,9 0 0 14 8 NNE 1011,5 0,0
19.10.2018 00:00:00 12,8 11,9 3 1 8 5 NE 1011,9 0,0
18.10.2018 23:00:00 13,1 12,0 3 1 8 4 N 1012,0 0,0
18.10.2018 22:00:00 13,2 12,1 1 1 12 7 ENE 1011,5 0,0
18.10.2018 21:00:00 13,2 11,9 4 2 10 5 ESE 1010,9 0,0
18.10.2018 20:00:00 13,4 12,3 5 3 11 6 NE 1010,3 -
18.10.2018 19:00:00 13,7 12,6 5 3 13 7 ENE 1009,6 0,0
18.10.2018 18:00:00 14,1 12,8 5 3 12 7 E 1009,3 0,2
18.10.2018 17:00:00 13,9 12,1 8 5 16 9 ESE 1009,0 0,1
18.10.2018 16:00:00 13,5 12,4 10 5 18 10 E 1008,9 0,0
18.10.2018 15:00:00 13,3 13,2 10 5 15 8 ESE 1009,2 0,3
18.10.2018 14:00:00 13,0 12,8 9 5 18 10 E 1009,1 -
18.10.2018 13:00:00 12,8 12,6 10 5 20 11 SE 1010,0 2,0
18.10.2018 12:00:00 12,8 12,6 10 6 18 10 W 1009,4 2,6
18.10.2018 11:00:00 12,6 12,4 2 1 24 13 ESE 1009,8 3,0
18.10.2018 10:00:00 12,4 12,2 19 10 49 27 W 1009,5 11,9
18.10.2018 09:00:00 15,1 15,0 8 5 14 7 SE 1007,5 0,0
18.10.2018 08:00:00 15,0 14,8 13 7 22 12 E 1007,5 -
18.10.2018 07:00:00 15,3 15,2 7 4 16 9 E 1008,3 2,6
18.10.2018 06:00:00 15,8 15,6 6 3 15 8 E 1008,9 2,3
18.10.2018 05:00:00 16,3 15,5 3 2 10 6 SE 1009,5 2,0
18.10.2018 04:00:00 16,4 14,7 5 3 7 4 SSE 1010,4 0,0
18.10.2018 03:00:00 16,7 15,1 5 3 6 3 SSW 1011,2 0,0
18.10.2018 02:00:00 17,0 14,8 1 1 13 7 E 1012,2 -
18.10.2018 01:00:00 17,5 15,3 10 5 24 13 SW 1012,7 0,0
18.10.2018 00:00:00 17,7 15,2 17 9 28 15 SW 1013,3 0,0
17.10.2018 23:00:00 18,1 13,8 19 10 33 18 SW 1013,7 0,0
17.10.2018 22:00:00 19,0 13,2 16 8 33 18 WSW 1013,5 0,0
17.10.2018 21:00:00 20,1 10,5 10 5 17 9 WSW 1013,4 0,0
17.10.2018 20:00:00 21,7 11,1 7 4 10 6 W 1013,0 -
17.10.2018 19:00:00 23,9 9,4 6 3 14 8 W 1012,8 0,0
17.10.2018 18:00:00 26,0 9,8 5 3 14 8 WSW 1013,1 0,0
17.10.2018 17:00:00 25,6 11,3 1 1 11 6 E 1013,6 0,0
17.10.2018 16:00:00 25,3 11,8 4 2 11 6 S 1014,2 0,0
17.10.2018 15:00:00 23,4 12,4 3 1 9 5 NE 1015,2 0,0
17.10.2018 14:00:00 22,4 13,5 2 1 10 6 NNE 1016,4 -
17.10.2018 13:00:00 21,2 14,1 3 2 9 5 SSW 1017,4 0,0
17.10.2018 12:00:00 18,4 14,5 6 3 13 7 E 1017,7 0,0
17.10.2018 11:00:00 16,5 14,5 1 1 4 2 E 1018,4 0,0
17.10.2018 10:00:00 13,4 13,3 0 0 2 1 S 1018,6 0,0
17.10.2018 09:00:00 11,4 11,2 0 0 2 1 N 1018,3 0,0
17.10.2018 08:00:00 11,9 11,8 0 0 3 2 E 1018,1 -
17.10.2018 07:00:00 11,9 11,8 2 1 5 3 SSE 1017,7 0,0
17.10.2018 06:00:00 12,2 12,0 3 1 4 2 SSE 1017,4 0,0
17.10.2018 05:00:00 12,7 12,5 0 0 5 3 S 1017,3 0,0
17.10.2018 04:00:00 13,3 13,2 1 0 5 3 S 1017,5 0,0
17.10.2018 03:00:00 13,4 12,7 0 0 3 2 S 1017,6 0,0
17.10.2018 02:00:00 14,3 13,6 0 0 1 1 N 1017,6 -
17.10.2018 01:00:00 14,6 13,2 0 0 4 2 N 1017,4 0,0
17.10.2018 00:00:00 15,6 12,7 0 0 6 3 NE 1017,2 0,0
16.10.2018 23:00:00 16,5 12,8 1 1 5 3 WSW 1017,1 0,0
16.10.2018 22:00:00 17,1 12,8 0 0 6 3 N 1016,3 0,0
16.10.2018 21:00:00 18,5 12,0 0 0 5 3 SSW 1015,9 0,0
16.10.2018 20:00:00 19,6 12,3 3 2 8 4 SE 1015,2 -
16.10.2018 19:00:00 21,2 11,2 6 4 16 9 E 1014,6 0,0
16.10.2018 18:00:00 22,2 11,9 8 4 24 13 E 1014,2 0,0
16.10.2018 17:00:00 21,9 11,9 9 5 18 10 NE 1014,3 0,0
16.10.2018 16:00:00 21,0 11,9 8 4 19 10 E 1013,9 0,0

tt = Température de l'air
td = dewpoint
ff = Vitesse du vent
fx = gusts
dd = Direction du vent
ppp = reduced air pressure
rr = Quantités de précipitations

stations d'obs. à proximité